Station: Canterbury  

  Atmospheric Gas Attenuation - ITU Rec 676-11   ----------------- dB/100km -----------------
Date Time Temp RH % AH g/m3 Dew Point Wind Direction Speed kph Gust kph Barometer mB Rainfall Since 9am 24GHz 47GHz 76GHz 122GHz 134GHz 241GHz
08/05 12:30 19.1 35 5.74 3.3 28 43 1013.1 0 13.3 20.3 27.1 70.7 58.6 199.6
08/05 12:20 18.9 36 5.83 3.5 28 37 1013.1 0 13.5 20.5 27.5 71.7 59.8 203.6
08/05 12:10 18.8 37 5.96 3.8 28 32 1013.1 0 13.8 20.7 28.0 72.9 61.3 208.9
08/05 12:00 18.6 36 5.73 3.3 26 43 1013.1 0 13.3 20.4 27.3 71.0 58.9 200.4
08/05 11:50 18.2 36 5.6 2.9 32 39 1013.1 0 13.1 20.3 27.0 70.2 57.7 196.3
08/05 11:40 18.4 37 5.82 3.5 30 37 1013.1 0 13.5 20.6 27.6 72.0 60.0 204.4
08/05 11:30 18.3 37 5.78 3.4 26 43 1013.1 0 13.4 20.5 27.5 71.7 59.6 203.1
08/05 11:20 18 38 5.84 3.5 30 43 1013.1 0 13.6 20.7 27.8 72.5 60.5 206.2
08/05 11:10 18 37 5.68 3.1 28 33 1013.1 0 13.2 20.5 27.3 71.1 58.7 199.9
08/05 11:00 18.2 38 5.91 3.7 20 35 1013.1 0 13.7 20.7 28.0 73.0 61.2 208.5
08/05 10:50 18 40 6.14 4.2 19 24 1013.1 0 14.2 21.1 28.9 75.3 63.9 218.1
08/05 10:40 17.6 40 6 3.9 20 28 1013.1 0 13.9 21.0 28.5 74.4 62.6 213.6
08/05 10:30 17 41 5.93 3.7 26 43 1013.1 0 13.8 21.0 28.5 74.3 62.3 212.4
08/05 10:20 17 42 6.08 4 24 32 1013.1 0 14.1 21.2 29.0 75.7 64.0 218.4
08/05 10:10 16.4 44 6.14 4.1 17 26 1013.1 0 14.3 21.5 29.4 76.8 65.2 222.5
08/05 10:00 16 44 5.99 3.8 20 32 1013.1 0 14.0 21.4 29.0 75.7 63.8 217.4
08/05 09:50 15.7 44 5.89 3.5 22 30 1013.1 0 13.8 21.3 28.8 75.1 62.9 214.1
08/05 09:40 15.8 45 6.06 3.9 17 24 1013.1 0 14.1 21.5 29.4 76.6 64.8 220.8
08/05 09:30 15.5 44 5.82 3.3 13 28 1013.1 0 13.6 21.2 28.6 74.6 62.2 211.8
08/05 09:20 14.9 46 5.86 3.4 13 15 1013.1 0 13.7 21.4 29.0 75.5 63.1 215.0
08/05 09:10 14.4 47 5.81 3.2 20 26 1013.1 0 13.6 21.5 29.0 75.5 63.0 214.3
08/05 09:00 14.4 49 6.06 3.8 13 20 1013.1 0 14.2 21.8 29.9 77.9 65.9 224.7
08/05 08:50 14 49 5.91 3.5 11 13 1013.1 0 13.9 21.7 29.5 76.9 64.5 219.5
08/05 08:40 13.7 50 5.92 3.5 11 15 1013.1 0 13.9 21.8 29.6 77.3 64.8 220.7
08/05 08:30 13.2 50 5.74 3 9 17 1013.1 0 13.5 21.6 29.1 76.0 63.1 214.6
08/05 08:20 12.8 51 5.71 2.9 9 15 1013.1 0 13.5 21.7 29.2 76.1 63.0 214.4
08/05 08:10 12.3 52 5.65 2.7 11 17 1013.1 0 13.4 21.7 29.1 76.0 62.7 213.2
08/05 08:00 12 54 5.76 3 7 15 1013.1 0 13.6 22.0 29.7 77.3 64.3 218.6
08/05 07:50 11.4 54 5.54 2.4 9 11 1013.1 0 13.2 21.8 29.1 75.7 62.1 210.9
08/05 07:40 10.7 56 5.5 2.3 9 13 1013.1 0 13.1 21.9 29.2 76.0 62.1 211.0
08/05 07:30 10 58 5.45 2.1 11 17 1013.1 0 13.0 22.0 29.2 76.2 62.1 210.7
08/05 07:20 9.4 60 5.43 2 13 15 1013.1 0 13.0 22.1 29.4 76.6 62.3 211.4
08/05 07:10 8.8 63 5.49 2.2 11 13 1013.1 0 13.1 22.3 29.8 77.7 63.5 215.6
08/05 07:00 8.2 64 5.36 1.8 9 15 1013.1 0 12.9 22.3 29.5 77.0 62.4 211.5
08/05 06:50 7.8 63 5.14 1.2 6 7 1013.1 0 12.4 22.0 28.9 75.2 59.9 202.9
08/05 06:40 7.9 64 5.26 1.5 4 9 1013.1 0 12.7 22.2 29.3 76.3 61.4 207.9
08/05 06:30 8 64 5.29 1.6 7 11 1013.1 0 12.7 22.2 29.4 76.5 61.7 208.9
08/05 06:20 8.1 63 5.24 1.5 7 11 1013.1 0 12.6 22.1 29.1 75.9 61.0 206.5
08/05 06:10 8.1 64 5.33 1.7 9 11 1013.1 0 12.8 22.3 29.5 76.8 62.1 210.4
08/05 06:00 8.5 63 5.38 1.9 7 15 1013.1 0 12.9 22.2 29.5 76.9 62.4 211.6
08/05 05:50 8.5 62 5.3 1.6 7 9 1013.1 0 12.8 22.1 29.2 76.1 61.4 208.1
08/05 05:40 8.8 62 5.4 1.9 9 13 1013.1 0 13.0 22.2 29.5 76.8 62.4 211.7
08/05 05:30 8.7 61 5.28 1.6 9 17 1013.1 0 12.7 22.0 29.1 75.7 61.0 206.7
08/05 05:20 8.9 62 5.43 2 11 13 1013.1 0 13.0 22.2 29.6 77.0 62.7 212.7
08/05 05:10 8.7 62 5.36 1.8 9 11 1013.1 0 12.9 22.2 29.4 76.5 62.0 210.2
08/05 05:00 8.5 62 5.3 1.6 9 15 1013.1 0 12.8 22.1 29.2 76.1 61.4 208.1
08/05 04:50 8.7 60 5.19 1.4 7 9 1013.1 0 12.5 21.9 28.7 74.8 59.9 202.8
08/05 04:40 9.2 60 5.36 1.9 11 15 1013.1 0 12.9 22.0 29.2 76.0 61.6 208.9
08/05 04:30 9 60 5.29 1.7 9 15 1013.1 0 12.7 22.0 29.0 75.5 60.9 206.4
08/05 04:20 9 60 5.29 1.7 7 11 1013.1 0 12.7 22.0 29.0 75.5 60.9 206.4
08/05 04:10 9 60 5.29 1.7 9 13 1013.1 0 12.7 22.0 29.0 75.5 60.9 206.4
08/05 04:00 8.7 59 5.1 1.1 9 17 1013.1 0 12.3 21.8 28.4 73.9 58.8 198.9
08/05 03:50 8.8 59 5.14 1.2 9 11 1013.1 0 12.4 21.8 28.5 74.2 59.2 200.4
08/05 03:40 9 57 5.03 1 9 11 1013.1 0 12.2 21.6 28.0 72.9 57.7 195.1
08/05 03:30 9.5 56 5.1 1.2 13 20 1013.1 0 12.3 21.6 28.1 73.2 58.2 196.9
08/05 03:20 10 55 5.17 1.4 11 13 1013.1 0 12.4 21.6 28.2 73.4 58.7 198.7
08/05 03:10 9.7 56 5.16 1.4 11 15 1013.1 0 12.4 21.6 28.3 73.6 58.8 199.0
08/05 03:00 9.9 54 5.04 1 11 19 1013.1 0 12.2 21.4 27.8 72.2 57.2 193.4
08/05 02:50 10.1 53 5.01 1 17 22 1013.1 0 12.1 21.3 27.6 71.8 56.7 191.6
08/05 02:40 9.9 54 5.04 1 11 15 1013.1 0 12.2 21.4 27.8 72.2 57.2 193.4
08/05 02:30 9.8 53 4.92 0.7 11 19 1013.1 0 11.9 21.2 27.4 71.2 55.8 188.5
08/05 02:20 10 52 4.89 0.6 13 17 1013.1 0 11.8 21.1 27.2 70.7 55.3 186.8
08/05 02:10 10.1 52 4.92 0.7 15 19 1013.1 0 11.9 21.2 27.3 70.9 55.6 187.8
08/05 02:00 10 52 4.89 0.6 15 22 1013.1 0 11.8 21.1 27.2 70.7 55.3 186.8
08/05 01:50 10 51 4.79 0.3 13 15 1013.1 0 11.6 21.0 26.8 69.7 54.1 182.6
08/05 01:40 10.1 50 4.73 0.2 15 19 1013.1 0 11.5 20.9 26.6 69.1 53.3 179.9
08/05 01:30 10.2 50 4.76 0.3 15 24 1013.1 0 11.5 20.9 26.6 69.3 53.6 180.9
08/05 01:20 10.2 49 4.66 0 15 20 1013.1 0 11.3 20.8 26.3 68.3 52.4 176.7
08/05 01:10 10.2 49 4.66 0 15 20 1013.1 0 11.3 20.8 26.3 68.3 52.4 176.7
08/05 01:00 10.2 48 4.57 -0.3 13 24 1013.1 0 11.1 20.6 26.0 67.4 51.3 173.0
08/05 00:50 10.4 47 4.53 -0.4 19 24 1013.1 0 11.1 20.5 25.8 66.9 50.8 170.9
08/05 00:40 10.3 47 4.5 -0.5 13 17 1013.1 0 11.0 20.5 25.7 66.7 50.5 169.9
08/05 00:20 10.1 48 4.54 -0.4 15 19 1013.1 0 11.1 20.6 25.9 67.2 51.1 171.9
08/05 00:10 9.9 48 4.48 -0.6 15 19 1013.1 0 11.0 20.6 25.7 66.8 50.5 169.9
08/05 00:00 10.1 48 4.54 -0.4 11 19 1013.1 0 11.1 20.6 25.9 67.2 51.1 171.9
07/05 23:50 10 48 4.51 -0.5 11 17 1013.1 0 11.0 20.6 25.8 67.0 50.8 170.9
07/05 23:40 9.9 48 4.48 -0.6 11 15 1013.1 0 11.0 20.6 25.7 66.8 50.5 169.9
07/05 23:30 10 48 4.51 -0.5 13 24 1013.1 0 11.0 20.6 25.8 67.0 50.8 170.9
07/05 23:20 10.2 47 4.47 -0.6 11 13 1013.1 0 10.9 20.5 25.6 66.5 50.2 168.8
07/05 23:10 10.1 47 4.45 -0.7 9 11 1013.1 0 10.9 20.5 25.6 66.4 50.0 168.2
07/05 23:00 10.4 46 4.43 -0.7 13 19 1013.1 0 10.8 20.4 25.4 65.9 49.6 166.8
07/05 22:50 10.7 45 4.42 -0.7 17 19 1013.1 0 10.8 20.3 25.3 65.6 49.3 165.8
07/05 22:40 10.5 45 4.37 -0.9 13 17 1013.1 0 10.7 20.3 25.2 65.3 48.8 164.1
07/05 22:30 10.8 44 4.35 -0.9 15 24 1013.1 0 10.7 20.2 25.0 64.9 48.4 162.7
07/05 22:20 10.8 44 4.35 -0.9 17 19 1013.1 0 10.7 20.2 25.0 64.9 48.4 162.7
07/05 22:10 11 44 4.41 -0.8 17 20 1013.1 0 10.8 20.2 25.1 65.3 49.0 164.7
07/05 22:00 11.3 42 4.28 -1.1 17 26 1013.1 0 10.5 20.0 24.6 63.8 47.3 158.9
07/05 21:50 11.3 42 4.28 -1.1 19 24 1013.1 0 10.5 20.0 24.6 63.8 47.3 158.9
07/05 21:40 11.2 42 4.26 -1.2 19 24 1013.1 0 10.5 20.0 24.6 63.7 47.1 158.3
07/05 21:30 11.3 42 4.28 -1.1 19 35 1013.1 0 10.5 20.0 24.6 63.8 47.3 158.9
07/05 21:20 11.4 42 4.31 -1 19 28 1013.1 0 10.6 20.0 24.7 64.0 47.6 159.9
07/05 21:10 11.5 41 4.24 -1.3 20 26 1013.1 0 10.4 19.9 24.4 63.3 46.7 156.9
07/05 21:00 11.2 42 4.26 -1.2 17 30 1013.1 0 10.5 20.0 24.6 63.7 47.1 158.3
07/05 20:50 11.4 41 4.21 -1.4 13 15 1013.1 0 10.3 19.9 24.3 63.1 46.4 155.9
07/05 20:40 11.6 41 4.26 -1.2 20 26 1013.1 0 10.4 19.9 24.4 63.4 46.9 157.5
07/05 20:30 11.6 40 4.16 -1.5 17 28 1013.1 0 10.2 19.7 24.1 62.5 45.8 153.5
07/05 20:20 11.6 40 4.16 -1.5 17 28 1013.1 0 10.2 19.7 24.1 62.5 45.8 153.5
07/05 20:10 11.7 39 4.08 -1.8 19 26 1013.1 0 10.1 19.6 23.8 61.7 44.8 150.1
07/05 20:00 12 38 4.05 -1.9 17 30 1013.1 0 10.0 19.5 23.6 61.2 44.3 148.4
07/05 19:50 12 38 4.05 -1.9 17 20 1013.1 0 10.0 19.5 23.6 61.2 44.3 148.4

Last Refresh: 08-May-2026 12:10:13

Bureau of Meteorology